Time;durP1;ratioP1;P1;durP2;ratioP2;P2;SDS_P1;SDS_P2;PMS_P1;PMS_P2;Temp;Humidity;BMP_temperature;BMP_pressure;BME280_temperature;BME280_humidity;BME280_pressure;Samples;Min_cycle;Max_cycle;Signal;HPM_P1;HPM_P2
2022/12/04 00:00:13;;;;;;;79.50;38.60;;;1.70;99.90;;;;;;5040599;28;20106;-40
2022/12/04 00:02:39;;;;;;;72.47;38.00;;;1.70;99.90;;;;;;5040495;28;20033;-38
2022/12/04 00:05:07;;;;;;;79.55;38.78;;;1.70;99.90;;;;;;5040285;28;20033;-40
2022/12/04 00:07:32;;;;;;;73.53;37.10;;;1.70;99.90;;;;;;5040819;28;20025;-40
2022/12/04 00:10:01;;;;;;;82.38;39.83;;;1.70;99.90;;;;;;5040722;28;20087;-38
2022/12/04 00:12:27;;;;;;;75.97;37.30;;;1.70;99.90;;;;;;5040461;28;20021;-36
2022/12/04 00:14:52;;;;;;;68.97;34.92;;;1.70;99.90;;;;;;5040470;28;20043;-36
2022/12/04 00:17:18;;;;;;;72.53;36.28;;;1.80;99.90;;;;;;5040917;28;20606;-36
2022/12/04 00:19:44;;;;;;;73.28;36.33;;;1.80;99.90;;;;;;5039702;28;20032;-39
2022/12/04 00:22:09;;;;;;;71.20;35.90;;;1.80;99.90;;;;;;5041234;28;20033;-37
2022/12/04 00:24:35;;;;;;;74.97;36.22;;;1.80;99.90;;;;;;5041068;28;20033;-39
2022/12/04 00:27:01;;;;;;;76.60;37.08;;;1.80;99.90;;;;;;5041226;28;20053;-36
2022/12/04 00:29:27;;;;;;;76.95;39.05;;;1.80;99.90;;;;;;5040851;28;20107;-38
2022/12/04 00:31:52;;;;;;;72.53;37.00;;;1.90;99.90;;;;;;5040343;28;20029;-40
2022/12/04 00:34:18;;;;;;;75.85;37.33;;;1.80;99.90;;;;;;5039378;28;20112;-38
2022/12/04 00:36:43;;;;;;;71.90;36.78;;;1.80;99.90;;;;;;5040331;28;20032;-39
2022/12/04 00:39:09;;;;;;;69.65;34.90;;;1.90;99.90;;;;;;5040108;28;20142;-39
2022/12/04 00:41:34;;;;;;;71.93;37.28;;;1.90;99.90;;;;;;5039234;28;20476;-40
2022/12/04 00:44:01;;;;;;;73.25;36.67;;;1.90;99.90;;;;;;5043828;28;20716;-40
2022/12/04 00:46:26;;;;;;;72.38;35.30;;;1.90;99.90;;;;;;5044233;28;20496;-39
2022/12/04 00:48:53;;;;;;;71.47;35.33;;;1.90;99.90;;;;;;5043441;28;20035;-38
2022/12/04 00:51:21;;;;;;;76.13;37.47;;;1.90;99.90;;;;;;5043700;28;20825;-39
2022/12/04 00:53:47;;;;;;;75.78;37.17;;;1.90;99.90;;;;;;5043411;28;20029;-40
2022/12/04 00:56:16;;;;;;;83.22;40.35;;;1.90;99.90;;;;;;5042980;28;20108;-38
2022/12/04 00:58:42;;;;;;;81.38;39.47;;;1.80;99.90;;;;;;5043791;28;20478;-41
2022/12/04 01:01:13;;;;;;;76.53;38.83;;;1.80;99.90;;;;;;5043601;28;20025;-38
2022/12/04 01:03:39;;;;;;;69.00;36.33;;;1.80;99.90;;;;;;5043568;28;20116;-37
2022/12/04 01:06:06;;;;;;;74.25;36.75;;;1.80;99.90;;;;;;5043722;28;20043;-39
2022/12/04 01:08:32;;;;;;;64.60;33.38;;;1.80;99.90;;;;;;5043705;28;20044;-37
2022/12/04 01:10:57;;;;;;;71.05;33.72;;;1.80;99.90;;;;;;5043661;28;20021;-40
2022/12/04 01:13:24;;;;;;;67.50;33.90;;;1.80;99.90;;;;;;5044517;28;20476;-40
2022/12/04 01:15:50;;;;;;;71.40;34.00;;;1.80;99.90;;;;;;5042812;28;20116;-39
2022/12/04 01:18:16;;;;;;;70.80;35.38;;;1.90;99.90;;;;;;5043156;28;20024;-37
2022/12/04 01:20:49;;;;;;;72.30;36.75;;;1.90;99.90;;;;;;5043508;28;20032;-36
2022/12/04 01:23:18;;;;;;;71.72;36.22;;;1.90;99.90;;;;;;5042973;28;20499;-39
2022/12/04 01:25:54;;;;;;;74.97;37.05;;;1.90;99.90;;;;;;5043393;28;20074;-40
2022/12/04 01:28:21;;;;;;;67.00;34.33;;;1.90;99.90;;;;;;5044341;28;20060;-37
2022/12/04 01:31:05;;;;;;;70.15;35.50;;;1.90;99.90;;;;;;5043467;28;20017;-40
2022/12/04 01:33:33;;;;;;;76.38;38.03;;;1.90;99.90;;;;;;5043690;28;20037;-39
2022/12/04 01:36:00;;;;;;;68.45;34.72;;;1.90;99.90;;;;;;5042722;28;20033;-39
2022/12/04 01:38:26;;;;;;;68.78;36.72;;;1.90;99.90;;;;;;5042749;28;20064;-40
2022/12/04 01:40:52;;;;;;;68.18;35.60;;;1.90;99.90;;;;;;5043010;28;20021;-40
2022/12/04 01:43:19;;;;;;;68.80;36.38;;;1.90;99.90;;;;;;5043262;28;20531;-40
2022/12/04 01:45:49;;;;;;;68.85;35.28;;;1.90;99.90;;;;;;5042158;28;20689;-40
2022/12/04 01:48:36;;;;;;;74.05;37.15;;;1.80;99.90;;;;;;5042808;28;20439;-40
2022/12/04 01:51:07;;;;;;;79.22;38.30;;;1.80;99.90;;;;;;5042210;28;20372;-37
2022/12/04 01:53:36;;;;;;;76.10;38.08;;;1.90;99.90;;;;;;5042221;28;20139;-39
2022/12/04 01:56:03;;;;;;;75.95;37.22;;;1.80;99.90;;;;;;5042531;28;20036;-39
2022/12/04 01:58:35;;;;;;;76.90;38.63;;;1.80;99.90;;;;;;5042380;28;20031;-39
2022/12/04 02:01:02;;;;;;;80.40;38.97;;;1.90;99.90;;;;;;5042538;28;20029;-38
2022/12/04 02:03:28;;;;;;;78.32;38.75;;;1.90;99.90;;;;;;5042500;28;20116;-39
2022/12/04 02:05:54;;;;;;;67.30;36.40;;;1.80;99.90;;;;;;5041784;28;20067;-36
2022/12/04 02:08:20;;;;;;;75.00;37.00;;;1.90;99.90;;;;;;5042014;28;20027;-34
2022/12/04 02:10:45;;;;;;;78.30;40.33;;;1.80;99.90;;;;;;5042441;28;20090;-46
2022/12/04 02:13:19;;;;;;;72.65;38.33;;;1.90;99.90;;;;;;5040840;28;20070;-37
2022/12/04 02:16:02;;;;;;;77.95;37.90;;;1.90;99.90;;;;;;5022417;28;20060;-38
2022/12/04 02:18:53;;;;;;;73.53;37.30;;;1.90;99.90;;;;;;5038929;28;20063;-39
2022/12/04 02:21:24;;;;;;;74.85;37.25;;;1.90;99.90;;;;;;5042833;28;20025;-38
2022/12/04 02:24:03;;;;;;;75.03;38.58;;;1.90;99.90;;;;;;5042792;28;20033;-39
2022/12/04 02:26:41;;;;;;;76.18;38.15;;;1.90;99.90;;;;;;5041765;28;20112;-39
2022/12/04 02:29:36;;;;;;;79.38;39.15;;;1.90;99.90;;;;;;5041419;28;20035;-40
2022/12/04 02:32:34;;;;;;;74.28;37.35;;;1.90;99.90;;;;;;5041401;28;20801;-40
2022/12/04 02:35:09;;;;;;;69.65;35.35;;;1.90;99.90;;;;;;5030748;28;20041;-38
2022/12/04 02:37:39;;;;;;;74.95;37.83;;;1.90;99.90;;;;;;5041456;28;20044;-39
2022/12/04 02:40:06;;;;;;;69.93;36.33;;;1.90;99.90;;;;;;5040641;28;20476;-36
2022/12/04 02:42:40;;;;;;;72.68;37.03;;;1.90;99.90;;;;;;5041733;28;20146;-37
2022/12/04 02:45:10;;;;;;;81.93;39.97;;;1.90;99.90;;;;;;5041262;28;20549;-39
2022/12/04 02:47:39;;;;;;;78.63;38.80;;;1.90;99.90;;;;;;5040989;28;20029;-40
2022/12/04 02:50:09;;;;;;;73.38;39.30;;;1.90;99.90;;;;;;5038107;28;20136;-38
2022/12/04 02:52:40;;;;;;;77.03;38.60;;;1.90;99.90;;;;;;5042313;28;20090;-37
2022/12/04 02:55:17;;;;;;;77.30;39.50;;;1.80;99.90;;;;;;5039971;28;20029;-35
2022/12/04 02:57:48;;;;;;;71.78;36.80;;;1.90;99.90;;;;;;5041247;28;20399;-38
2022/12/04 03:00:15;;;;;;;70.90;36.50;;;1.90;99.90;;;;;;5040940;28;20032;-38
2022/12/04 03:02:54;;;;;;;70.80;35.22;;;1.90;99.90;;;;;;5041092;28;20027;-39
2022/12/04 03:05:24;;;;;;;69.85;35.22;;;1.90;99.90;;;;;;5040914;28;20040;-39
2022/12/04 03:07:57;;;;;;;77.70;38.70;;;1.90;99.90;;;;;;5041432;28;20043;-40
2022/12/04 03:10:37;;;;;;;71.80;36.72;;;1.90;99.90;;;;;;5041866;28;20065;-40
2022/12/04 03:13:10;;;;;;;74.28;37.95;;;1.90;99.90;;;;;;5041666;28;20040;-39
2022/12/04 03:15:46;;;;;;;72.60;37.20;;;1.90;99.90;;;;;;5040880;28;20108;-38
2022/12/04 03:18:24;;;;;;;75.43;36.80;;;1.90;99.90;;;;;;5041678;28;20037;-34
2022/12/04 03:20:58;;;;;;;67.95;34.22;;;1.90;99.90;;;;;;5041313;28;20083;-38
2022/12/04 03:23:38;;;;;;;78.35;38.47;;;1.90;99.90;;;;;;5040755;28;20074;-39
2022/12/04 03:26:16;;;;;;;77.25;39.10;;;1.90;99.90;;;;;;5040337;28;20558;-39
2022/12/04 03:29:10;;;;;;;75.93;39.28;;;1.90;99.90;;;;;;5040885;28;20488;-38
2022/12/04 03:32:01;;;;;;;73.00;36.90;;;1.90;99.90;;;;;;5040643;28;20104;-34
2022/12/04 03:34:37;;;;;;;75.72;37.55;;;1.90;99.90;;;;;;5041301;28;20473;-40
2022/12/04 03:37:10;;;;;;;75.10;37.92;;;1.90;99.90;;;;;;5035409;28;20045;-39
2022/12/04 03:40:08;;;;;;;76.05;37.92;;;1.90;99.90;;;;;;5024923;28;20021;-37
2022/12/04 03:42:45;;;;;;;76.68;39.72;;;1.90;99.90;;;;;;5032795;28;20025;-39
2022/12/04 03:45:13;;;;;;;80.78;39.13;;;1.90;99.90;;;;;;5040384;28;20074;-39
2022/12/04 03:47:53;;;;;;;72.50;36.42;;;1.90;99.90;;;;;;5041172;28;20551;-40
2022/12/04 03:50:32;;;;;;;70.63;35.97;;;1.90;99.90;;;;;;5040803;28;20521;-38
2022/12/04 03:53:14;;;;;;;72.18;37.30;;;1.90;99.90;;;;;;5041137;28;20041;-39
2022/12/04 03:55:51;;;;;;;72.43;36.78;;;1.90;99.90;;;;;;5039843;28;20107;-38
2022/12/04 03:58:21;;;;;;;72.53;35.30;;;1.90;99.90;;;;;;5039834;28;20044;-39
2022/12/04 04:00:50;;;;;;;70.38;35.30;;;1.90;99.90;;;;;;5040776;28;20461;-37
2022/12/04 04:03:21;;;;;;;70.38;36.17;;;1.90;99.90;;;;;;5040477;28;20021;-39
2022/12/04 04:05:54;;;;;;;69.05;34.53;;;1.90;99.90;;;;;;5039726;28;20554;-38
2022/12/04 04:08:26;;;;;;;66.95;33.63;;;1.90;99.90;;;;;;5040237;28;20041;-39
2022/12/04 04:10:55;;;;;;;71.70;35.60;;;1.90;99.90;;;;;;5040444;28;20849;-37
2022/12/04 04:24:50;;;;;;;75.18;38.70;;;2.00;99.90;;;;;;5045077;28;20083;-39
2022/12/04 04:27:15;;;;;;;80.00;41.72;;;1.90;99.90;;;;;;5043905;28;20024;-40
2022/12/04 04:29:43;;;;;;;80.80;40.95;;;1.90;99.90;;;;;;5044318;28;20394;-39
2022/12/04 04:32:16;;;;;;;76.43;39.92;;;1.90;99.90;;;;;;5044583;28;20016;-38
2022/12/04 04:35:05;;;;;;;76.30;37.95;;;1.90;99.90;;;;;;5043890;28;20071;-40
2022/12/04 04:37:47;;;;;;;78.60;38.60;;;1.90;99.90;;;;;;5044132;28;20076;-40
2022/12/04 04:40:20;;;;;;;76.43;38.20;;;1.90;99.90;;;;;;5043507;28;20761;-40
2022/12/04 04:42:52;;;;;;;79.13;39.75;;;1.90;99.90;;;;;;5044237;28;20037;-39
2022/12/04 04:45:26;;;;;;;75.10;39.42;;;1.90;99.90;;;;;;5044260;28;20029;-40
2022/12/04 04:48:02;;;;;;;77.53;38.65;;;1.90;99.90;;;;;;5044046;28;20025;-40
2022/12/04 04:50:30;;;;;;;76.25;38.13;;;1.90;99.90;;;;;;5044518;28;20075;-41
2022/12/04 04:53:04;;;;;;;74.82;38.47;;;1.90;99.90;;;;;;5043336;28;20028;-39
2022/12/04 04:55:33;;;;;;;73.47;39.63;;;1.90;99.90;;;;;;5043465;28;20029;-40
2022/12/04 04:58:09;;;;;;;71.88;37.10;;;1.90;99.90;;;;;;5043292;28;20021;-39
2022/12/04 05:00:35;;;;;;;69.90;36.90;;;1.90;99.90;;;;;;5042725;28;20021;-40
2022/12/04 05:03:01;;;;;;;75.40;38.97;;;1.90;99.90;;;;;;5043429;28;20366;-40
2022/12/04 05:05:26;;;;;;;73.22;37.97;;;1.90;99.90;;;;;;5043902;28;20020;-36
2022/12/04 05:07:52;;;;;;;75.80;38.05;;;1.90;99.90;;;;;;5043028;28;20025;-39
2022/12/04 05:10:17;;;;;;;67.07;35.35;;;1.90;99.90;;;;;;5043497;28;20021;-40
2022/12/04 05:12:43;;;;;;;69.65;36.03;;;2.00;99.90;;;;;;5043652;28;20044;-40
2022/12/04 05:15:09;;;;;;;72.72;37.05;;;1.90;99.90;;;;;;5042528;28;20021;-40
2022/12/04 05:17:35;;;;;;;72.18;35.35;;;1.90;99.90;;;;;;5043103;28;20481;-39
2022/12/04 05:20:02;;;;;;;73.72;38.00;;;1.90;99.90;;;;;;5043569;28;20489;-40
2022/12/04 05:22:30;;;;;;;70.55;36.28;;;1.90;99.90;;;;;;5042811;28;20534;-40
2022/12/04 05:24:56;;;;;;;73.88;36.65;;;1.90;99.90;;;;;;5042411;28;20555;-38
2022/12/04 05:27:23;;;;;;;70.95;35.72;;;2.00;99.90;;;;;;5043351;28;20021;-38
2022/12/04 05:29:52;;;;;;;74.97;36.88;;;1.90;99.90;;;;;;5041585;28;20037;-38
2022/12/04 05:32:18;;;;;;;70.55;36.40;;;2.00;99.90;;;;;;5043162;28;20029;-40
2022/12/04 05:34:47;;;;;;;65.60;34.33;;;2.00;99.90;;;;;;5042515;28;20086;-39
2022/12/04 05:37:12;;;;;;;71.80;35.33;;;1.90;99.90;;;;;;5042209;28;20124;-35
2022/12/04 05:39:38;;;;;;;73.40;37.10;;;2.00;99.90;;;;;;5043310;28;20062;-38
2022/12/04 05:42:03;;;;;;;69.85;35.67;;;1.90;99.90;;;;;;5043477;28;20051;-40
2022/12/04 05:44:29;;;;;;;64.80;35.03;;;1.90;99.90;;;;;;5042878;28;20036;-36
2022/12/04 05:46:55;;;;;;;64.70;33.70;;;2.00;99.90;;;;;;5042523;28;20750;-39
2022/12/04 05:49:20;;;;;;;64.70;34.83;;;1.90;99.90;;;;;;5042610;28;20044;-40
2022/12/04 05:51:49;;;;;;;64.38;34.17;;;2.00;99.90;;;;;;5041901;28;20488;-38
2022/12/04 05:54:14;;;;;;;67.93;33.38;;;2.00;99.90;;;;;;5042036;28;20336;-41
2022/12/04 05:56:40;;;;;;;65.35;33.33;;;1.90;99.90;;;;;;5042892;28;20484;-41
2022/12/04 05:59:05;;;;;;;63.55;32.83;;;2.00;99.90;;;;;;5042028;28;20504;-40
2022/12/04 06:01:31;;;;;;;62.70;33.28;;;2.00;99.90;;;;;;5042865;28;20056;-39
2022/12/04 06:03:56;;;;;;;65.45;31.70;;;2.00;99.90;;;;;;5042165;28;20120;-40
2022/12/04 06:06:24;;;;;;;64.78;33.08;;;2.00;99.90;;;;;;5042619;28;20033;-40
2022/12/04 06:08:51;;;;;;;70.55;36.55;;;2.00;99.90;;;;;;5042749;28;20020;-39
2022/12/04 06:11:20;;;;;;;60.65;31.95;;;2.00;99.90;;;;;;5041614;28;20033;-41
2022/12/04 06:13:46;;;;;;;68.55;34.85;;;2.00;99.90;;;;;;5042629;28;20044;-39
2022/12/04 06:16:23;;;;;;;66.80;34.05;;;2.00;99.90;;;;;;5042663;28;20024;-39
2022/12/04 06:18:54;;;;;;;69.53;34.00;;;2.00;99.90;;;;;;5021795;28;20387;-39
2022/12/04 06:21:22;;;;;;;70.72;36.22;;;2.00;99.90;;;;;;5037163;28;20029;-40
2022/12/04 06:23:47;;;;;;;67.60;35.70;;;2.00;99.90;;;;;;5042565;28;20032;-41
2022/12/04 06:26:13;;;;;;;59.92;31.02;;;1.90;99.90;;;;;;5041154;28;20025;-39
2022/12/04 06:28:39;;;;;;;61.67;32.95;;;2.00;99.90;;;;;;5042148;28;20035;-39
2022/12/04 06:31:07;;;;;;;68.03;33.85;;;1.90;99.90;;;;;;5042124;28;20135;-39
2022/12/04 06:33:33;;;;;;;63.17;33.08;;;1.90;99.90;;;;;;5040920;28;20575;-40
2022/12/04 06:36:10;;;;;;;61.47;31.42;;;2.00;99.90;;;;;;5041511;28;20073;-41
2022/12/04 06:38:36;;;;;;;65.75;32.90;;;2.00;99.90;;;;;;5041621;28;20049;-37
2022/12/04 06:41:03;;;;;;;63.33;32.22;;;2.00;99.90;;;;;;5040310;28;20385;-40
2022/12/04 06:43:30;;;;;;;64.82;33.28;;;2.00;99.90;;;;;;5041814;28;20065;-39
2022/12/04 06:46:00;;;;;;;70.13;35.65;;;2.00;99.90;;;;;;5041242;28;20632;-37
2022/12/04 06:48:28;;;;;;;71.10;35.88;;;2.00;99.90;;;;;;5042245;28;20841;-40
2022/12/04 06:51:01;;;;;;;63.30;33.03;;;2.00;99.90;;;;;;5041858;28;20839;-38
2022/12/04 06:53:29;;;;;;;68.35;35.05;;;2.00;99.90;;;;;;5040872;28;20390;-40
2022/12/04 06:55:55;;;;;;;63.50;32.35;;;2.00;99.90;;;;;;5041662;28;20813;-39
2022/12/04 06:58:21;;;;;;;61.25;32.63;;;2.00;99.90;;;;;;5041335;28;20366;-40
2022/12/04 07:00:46;;;;;;;64.88;33.15;;;2.00;99.90;;;;;;5041207;28;20039;-40
2022/12/04 07:03:12;;;;;;;70.57;34.17;;;2.00;99.90;;;;;;5041481;28;20754;-39
2022/12/04 07:05:41;;;;;;;62.22;33.15;;;2.00;99.90;;;;;;5041933;28;20028;-40
2022/12/04 07:08:06;;;;;;;59.90;30.70;;;2.00;99.90;;;;;;5040332;28;20040;-39
2022/12/04 07:10:34;;;;;;;58.90;31.10;;;2.00;99.90;;;;;;5041600;28;20020;-38
2022/12/04 07:13:00;;;;;;;60.78;31.75;;;2.00;99.90;;;;;;5040636;28;20032;-38
2022/12/04 07:15:25;;;;;;;62.90;32.13;;;2.00;99.90;;;;;;5040812;28;20444;-36
2022/12/04 07:17:51;;;;;;;58.55;30.50;;;2.00;99.90;;;;;;5040911;28;20037;-39
2022/12/04 07:20:16;;;;;;;56.38;30.60;;;2.00;99.90;;;;;;5041326;28;20538;-39
2022/12/04 07:22:42;;;;;;;60.97;32.05;;;2.10;99.90;;;;;;5039962;28;20045;-41
2022/12/04 07:25:08;;;;;;;67.97;33.72;;;2.10;99.90;;;;;;5041474;28;20028;-39
2022/12/04 07:27:33;;;;;;;61.83;31.80;;;2.10;99.90;;;;;;5041495;28;20020;-39
2022/12/04 07:29:59;;;;;;;57.50;31.33;;;2.10;99.90;;;;;;5040628;28;20551;-39
2022/12/04 07:32:24;;;;;;;63.38;32.38;;;2.10;99.90;;;;;;5041684;28;20071;-40
2022/12/04 07:34:50;;;;;;;63.22;31.85;;;2.10;99.90;;;;;;5040332;28;20056;-40
2022/12/04 07:37:16;;;;;;;67.30;34.42;;;2.10;99.90;;;;;;5040266;28;20504;-39
2022/12/04 07:39:41;;;;;;;64.20;31.17;;;2.10;99.90;;;;;;5041197;28;20430;-39
2022/12/04 07:42:07;;;;;;;63.63;32.85;;;2.10;99.90;;;;;;5041560;28;20043;-39
2022/12/04 07:44:32;;;;;;;62.47;32.30;;;2.10;99.90;;;;;;5040312;28;20831;-39
2022/12/04 07:46:58;;;;;;;59.95;31.08;;;2.10;99.90;;;;;;5040891;28;20136;-38
2022/12/04 07:49:23;;;;;;;61.88;31.85;;;2.10;99.90;;;;;;5040763;28;20025;-39
2022/12/04 07:51:49;;;;;;;66.97;33.92;;;2.10;99.90;;;;;;5043190;28;20021;-36
2022/12/04 07:54:15;;;;;;;66.20;32.70;;;2.00;99.90;;;;;;5045016;28;20036;-38
2022/12/04 07:56:40;;;;;;;58.83;30.27;;;2.10;99.90;;;;;;5044505;28;20052;-39
2022/12/04 07:59:06;;;;;;;63.65;32.60;;;2.10;99.90;;;;;;5044585;28;20547;-40
2022/12/04 08:01:34;;;;;;;59.20;30.90;;;2.10;99.90;;;;;;5045242;28;20036;-39
2022/12/04 08:04:01;;;;;;;62.15;32.10;;;2.10;99.90;;;;;;5044148;28;20056;-40
2022/12/04 08:06:29;;;;;;;63.13;32.83;;;2.10;99.90;;;;;;5044403;28;20033;-40
2022/12/04 08:08:56;;;;;;;67.43;33.50;;;2.10;99.90;;;;;;5045520;28;20447;-40
2022/12/04 08:11:24;;;;;;;66.28;31.23;;;2.10;99.90;;;;;;5044867;28;20059;-41
2022/12/04 08:14:00;;;;;;;69.53;34.63;;;2.10;99.90;;;;;;5045044;28;20507;-38
2022/12/04 08:16:27;;;;;;;59.97;29.77;;;2.10;99.90;;;;;;5035036;28;20021;-40
2022/12/04 08:18:54;;;;;;;60.65;29.67;;;2.10;99.90;;;;;;5043846;28;20037;-40
2022/12/04 08:21:22;;;;;;;58.63;29.42;;;2.10;99.90;;;;;;5043945;28;20036;-38
2022/12/04 08:23:50;;;;;;;61.25;31.30;;;2.10;99.90;;;;;;5043875;28;20079;-40
2022/12/04 08:26:18;;;;;;;55.88;30.10;;;2.10;99.90;;;;;;5043685;28;20686;-40
2022/12/04 08:28:43;;;;;;;62.45;31.70;;;2.20;99.90;;;;;;5044129;28;20514;-40
2022/12/04 08:31:12;;;;;;;59.67;32.05;;;2.20;99.90;;;;;;5043598;28;20025;-38
2022/12/04 08:33:39;;;;;;;61.40;30.98;;;2.20;99.90;;;;;;5043314;28;20446;-40
2022/12/04 08:36:07;;;;;;;62.30;30.05;;;2.20;99.90;;;;;;5043479;28;20052;-38
2022/12/04 08:38:32;;;;;;;58.30;31.10;;;2.20;99.90;;;;;;5043359;28;20056;-37
2022/12/04 08:41:02;;;;;;;65.63;32.05;;;2.20;99.90;;;;;;5043737;28;20485;-39
2022/12/04 08:43:32;;;;;;;61.33;30.95;;;2.20;99.90;;;;;;5044194;28;20053;-37
2022/12/04 08:45:59;;;;;;;57.45;30.02;;;2.20;99.90;;;;;;5043483;28;20021;-38
2022/12/04 08:48:26;;;;;;;59.83;30.60;;;2.20;99.90;;;;;;5044051;28;20832;-40
2022/12/04 08:50:52;;;;;;;56.20;28.23;;;2.20;99.90;;;;;;5043817;28;20051;-39
2022/12/04 08:53:18;;;;;;;58.00;29.05;;;2.20;99.90;;;;;;5040358;28;20378;-38
2022/12/04 08:55:44;;;;;;;56.80;29.48;;;2.20;99.90;;;;;;5042698;28;20032;-40
2022/12/04 08:58:10;;;;;;;52.78;28.17;;;2.20;99.90;;;;;;5042431;28;20037;-39
2022/12/04 09:00:36;;;;;;;54.58;29.33;;;2.20;99.90;;;;;;5042011;28;20055;-38
2022/12/04 09:03:02;;;;;;;56.75;29.45;;;2.20;99.90;;;;;;5042401;28;20033;-40
2022/12/04 09:05:29;;;;;;;51.65;27.60;;;2.20;99.90;;;;;;5043762;28;20055;-41
2022/12/04 09:07:54;;;;;;;55.55;28.75;;;2.20;99.90;;;;;;5042069;28;20398;-40
2022/12/04 09:10:20;;;;;;;55.67;28.63;;;2.20;99.90;;;;;;5042667;28;20029;-40
2022/12/04 09:12:45;;;;;;;46.92;25.25;;;2.20;99.90;;;;;;5042215;28;20879;-39
2022/12/04 09:15:11;;;;;;;52.05;27.05;;;2.20;99.90;;;;;;5042224;28;20039;-40
2022/12/04 09:17:37;;;;;;;52.10;27.75;;;2.20;99.90;;;;;;5042576;28;20482;-38
2022/12/04 09:20:04;;;;;;;51.90;27.65;;;2.20;99.90;;;;;;5043161;28;20037;-37
2022/12/04 09:22:30;;;;;;;56.60;29.58;;;2.20;99.90;;;;;;5042243;28;20087;-41
2022/12/04 09:24:56;;;;;;;50.33;26.23;;;2.20;99.90;;;;;;5042943;28;20460;-41
2022/12/04 09:27:21;;;;;;;50.05;25.80;;;2.20;99.90;;;;;;5042385;28;20128;-40
2022/12/04 09:29:47;;;;;;;53.20;27.00;;;2.30;99.90;;;;;;5042181;28;20057;-40
2022/12/04 09:32:12;;;;;;;53.75;27.67;;;2.20;99.90;;;;;;5042893;28;20146;-37
2022/12/04 09:34:40;;;;;;;52.10;25.38;;;2.20;99.90;;;;;;5042775;28;20033;-41
2022/12/04 09:37:05;;;;;;;50.85;26.02;;;2.30;99.90;;;;;;5041550;28;20041;-40
2022/12/04 09:39:31;;;;;;;46.28;25.83;;;2.30;99.90;;;;;;5042720;28;20029;-40
2022/12/04 09:42:01;;;;;;;47.40;25.55;;;2.30;99.90;;;;;;5041102;28;20031;-37
2022/12/04 09:44:43;;;;;;;53.75;28.10;;;2.30;99.90;;;;;;5043001;28;20033;-39
2022/12/04 09:47:24;;;;;;;48.75;25.73;;;2.30;99.90;;;;;;5041948;28;20029;-38
2022/12/04 09:50:02;;;;;;;49.22;25.38;;;2.30;99.90;;;;;;5041336;28;20033;-37
2022/12/04 09:52:43;;;;;;;50.70;26.52;;;2.30;99.90;;;;;;5042061;28;20061;-39
2022/12/04 09:55:22;;;;;;;47.95;25.17;;;2.30;99.90;;;;;;5042009;28;20366;-40
2022/12/04 09:57:51;;;;;;;43.60;22.65;;;2.30;99.90;;;;;;5041573;28;20024;-39
2022/12/04 10:00:18;;;;;;;43.40;22.95;;;2.30;99.90;;;;;;5042245;28;20318;-37
2022/12/04 10:02:53;;;;;;;38.38;20.92;;;2.30;99.90;;;;;;5042075;28;20032;-41
2022/12/04 10:05:44;;;;;;;38.97;21.67;;;2.30;99.90;;;;;;5042146;28;20918;-38
2022/12/04 10:08:33;;;;;;;43.45;22.65;;;2.30;99.90;;;;;;5038383;28;20040;-41
2022/12/04 10:11:08;;;;;;;40.40;22.10;;;2.40;99.90;;;;;;5040907;28;20063;-40
2022/12/04 10:13:42;;;;;;;44.33;22.77;;;2.30;99.90;;;;;;5041441;28;20037;-38
2022/12/04 10:16:38;;;;;;;39.88;20.88;;;2.30;99.90;;;;;;5042022;28;20033;-39
2022/12/04 10:19:15;;;;;;;42.20;21.77;;;2.30;99.90;;;;;;5034989;28;20035;-40
2022/12/04 10:21:55;;;;;;;38.15;20.55;;;2.30;99.90;;;;;;5041667;28;20083;-37
2022/12/04 10:24:33;;;;;;;35.83;20.85;;;2.30;99.90;;;;;;5040701;28;20028;-39
2022/12/04 10:27:04;;;;;;;34.75;19.23;;;2.30;99.90;;;;;;5041940;28;20024;-40
2022/12/04 10:29:33;;;;;;;36.10;19.23;;;2.40;99.90;;;;;;5040760;28;20036;-39
2022/12/04 10:32:21;;;;;;;33.45;20.02;;;2.40;99.90;;;;;;5041466;28;20087;-36
2022/12/04 10:34:53;;;;;;;31.48;18.77;;;2.40;99.90;;;;;;5042266;28;20477;-39
2022/12/04 10:37:20;;;;;;;32.37;19.53;;;2.40;99.90;;;;;;5042689;28;20064;-39
2022/12/04 10:40:01;;;;;;;32.05;17.60;;;2.40;99.90;;;;;;5041074;28;20036;-38
2022/12/04 10:42:48;;;;;;;31.33;19.40;;;2.40;99.90;;;;;;5041972;28;20037;-38
2022/12/04 10:45:13;;;;;;;37.72;20.85;;;2.40;99.90;;;;;;5041130;28;20550;-40
2022/12/04 10:47:44;;;;;;;33.47;19.83;;;2.50;99.90;;;;;;5042410;28;20020;-39
2022/12/04 10:50:18;;;;;;;29.55;17.33;;;2.50;99.90;;;;;;5042105;28;20116;-41
2022/12/04 10:52:44;;;;;;;34.33;20.13;;;2.40;99.90;;;;;;5041480;28;20028;-40
2022/12/04 10:55:14;;;;;;;32.28;18.02;;;2.50;99.90;;;;;;5041188;28;20469;-39
2022/12/04 10:57:44;;;;;;;32.08;17.75;;;2.50;99.90;;;;;;5041395;28;20203;-39
2022/12/04 11:00:31;;;;;;;29.10;17.08;;;2.50;99.90;;;;;;5040358;28;20029;-38
2022/12/04 11:03:07;;;;;;;27.98;17.35;;;2.50;99.90;;;;;;5040413;28;20563;-40
2022/12/04 11:05:42;;;;;;;27.08;16.48;;;2.50;99.90;;;;;;5040968;28;20032;-39
2022/12/04 11:08:25;;;;;;;27.15;16.42;;;2.50;99.90;;;;;;5040684;28;20032;-38
2022/12/04 11:11:01;;;;;;;29.42;16.85;;;2.50;99.90;;;;;;5040891;28;20094;-40
2022/12/04 11:13:27;;;;;;;29.00;18.02;;;2.60;99.90;;;;;;5040906;28;20037;-40
2022/12/04 11:15:54;;;;;;;31.23;18.45;;;2.60;99.90;;;;;;5041352;28;20405;-39
2022/12/04 11:18:24;;;;;;;29.52;16.50;;;2.60;99.90;;;;;;5042880;28;20041;-40
2022/12/04 11:20:56;;;;;;;27.65;17.02;;;2.60;99.90;;;;;;5039756;28;20782;-38
2022/12/04 11:23:22;;;;;;;30.35;17.73;;;2.70;99.90;;;;;;5041075;28;20064;-40
2022/12/04 11:25:51;;;;;;;28.83;16.48;;;2.70;99.90;;;;;;5040475;28;20025;-40
2022/12/04 11:28:23;;;;;;;26.67;16.88;;;2.70;99.90;;;;;;5040083;28;20694;-41
2022/12/04 11:30:53;;;;;;;30.30;17.75;;;2.70;99.90;;;;;;5041674;28;20077;-40
2022/12/04 11:33:24;;;;;;;29.95;18.48;;;2.70;99.90;;;;;;5040826;28;20040;-39
2022/12/04 11:35:55;;;;;;;29.05;17.80;;;2.70;99.90;;;;;;5039894;28;20373;-37
2022/12/04 11:38:25;;;;;;;28.95;17.00;;;2.70;99.90;;;;;;5040695;28;20053;-40
2022/12/04 11:40:53;;;;;;;30.35;17.65;;;2.70;99.90;;;;;;5040119;28;20051;-40
2022/12/04 11:43:22;;;;;;;26.38;17.17;;;2.70;99.90;;;;;;5040448;28;20047;-40
2022/12/04 11:46:03;;;;;;;28.90;16.92;;;2.70;99.90;;;;;;5040846;28;20701;-40
2022/12/04 11:48:31;;;;;;;27.65;16.88;;;2.70;99.90;;;;;;5029640;28;20028;-41
2022/12/04 11:51:08;;;;;;;25.33;15.90;;;2.70;99.90;;;;;;5040403;28;20025;-39
2022/12/04 11:53:54;;;;;;;26.52;16.95;;;2.70;99.90;;;;;;5041260;28;20052;-41
2022/12/04 11:56:33;;;;;;;26.02;15.68;;;2.70;99.90;;;;;;5040441;28;20037;-40
2022/12/04 11:59:24;;;;;;;29.00;16.95;;;2.80;99.90;;;;;;5031494;28;20059;-41
2022/12/04 12:02:20;;;;;;;29.02;17.33;;;2.80;99.90;;;;;;5040308;28;20480;-34
2022/12/04 12:04:48;;;;;;;27.55;16.75;;;2.80;99.90;;;;;;5040313;28;20064;-39
2022/12/04 12:07:22;;;;;;;27.08;16.67;;;2.80;99.90;;;;;;5040690;28;20032;-40
2022/12/04 12:10:03;;;;;;;28.23;16.92;;;2.80;99.90;;;;;;5039259;28;20096;-39
2022/12/04 12:13:10;;;;;;;28.17;17.38;;;2.80;99.90;;;;;;5039244;28;20083;-40
2022/12/04 12:16:01;;;;;;;28.70;17.27;;;2.80;99.90;;;;;;5040034;28;20278;-39
2022/12/04 12:18:50;;;;;;;31.27;18.25;;;2.90;99.90;;;;;;5039666;28;20161;-38
2022/12/04 12:21:26;;;;;;;28.98;17.88;;;2.80;99.90;;;;;;5041045;28;20555;-40
2022/12/04 12:24:04;;;;;;;28.02;17.23;;;2.80;99.90;;;;;;5038873;28;20048;-39
2022/12/04 12:26:43;;;;;;;28.05;16.83;;;2.80;99.90;;;;;;5040474;28;20516;-39
2022/12/04 12:29:28;;;;;;;28.75;17.83;;;2.80;99.90;;;;;;5040541;28;20017;-39
2022/12/04 12:32:12;;;;;;;30.90;18.55;;;2.80;99.90;;;;;;5040067;28;20032;-40
2022/12/04 12:34:40;;;;;;;26.80;17.30;;;2.90;99.90;;;;;;5037068;28;20044;-40
2022/12/04 12:37:32;;;;;;;30.50;18.77;;;2.90;99.90;;;;;;5039736;28;20072;-39
2022/12/04 12:40:13;;;;;;;26.75;17.17;;;2.90;99.90;;;;;;5042855;28;20029;-39
2022/12/04 12:42:47;;;;;;;26.08;16.98;;;2.90;99.90;;;;;;5044059;28;20108;-39
2022/12/04 12:45:34;;;;;;;28.63;17.98;;;2.90;99.90;;;;;;5043103;28;20551;-40
2022/12/04 12:48:28;;;;;;;27.70;16.67;;;2.90;99.90;;;;;;5043878;28;20021;-40
2022/12/04 12:51:33;;;;;;;27.20;16.13;;;3.00;99.90;;;;;;5027065;28;20029;-40
2022/12/04 12:54:35;;;;;;;27.60;16.27;;;3.00;99.90;;;;;;5042355;28;20083;-37
2022/12/04 12:57:21;;;;;;;28.15;16.88;;;2.90;99.90;;;;;;5043397;28;20039;-39
2022/12/04 13:00:01;;;;;;;29.95;17.05;;;2.90;99.90;;;;;;5042438;28;20056;-40
2022/12/04 13:02:29;;;;;;;27.98;16.77;;;3.00;99.90;;;;;;5024501;28;20064;-40
2022/12/04 13:05:03;;;;;;;28.33;16.80;;;2.90;99.90;;;;;;5038345;28;20028;-40
2022/12/04 13:07:56;;;;;;;27.88;16.98;;;2.90;99.90;;;;;;5023103;28;20038;-39